createdAt,value
2023-03-15T00:01:48.579Z,7.17
2023-03-15T00:04:15.837Z,6.57
2023-03-15T00:06:42.407Z,6.60
2023-03-15T00:09:08.926Z,6.90
2023-03-15T00:11:35.529Z,6.90
2023-03-15T00:14:02.606Z,6.57
2023-03-15T00:16:29.297Z,6.70
2023-03-15T00:18:56.304Z,7.47
2023-03-15T00:21:22.948Z,7.23
2023-03-15T00:23:49.442Z,7.23
2023-03-15T00:26:16.497Z,7.53
2023-03-15T00:28:43.382Z,8.07
2023-03-15T00:31:18.958Z,8.30
2023-03-15T00:33:46.013Z,8.13
2023-03-15T00:36:12.776Z,7.83
2023-03-15T00:38:40.873Z,5.60
2023-03-15T00:41:09.293Z,3.13
2023-03-15T00:43:35.901Z,2.03
2023-03-15T00:46:03.293Z,1.77
2023-03-15T00:48:30.062Z,1.43
2023-03-15T00:51:11.501Z,1.30
2023-03-15T00:53:40.306Z,1.03
2023-03-15T00:56:08.657Z,0.87
2023-03-15T00:58:35.252Z,0.93
2023-03-15T01:01:12.412Z,0.80
2023-03-15T01:03:40.837Z,0.93
2023-03-15T01:06:19.264Z,0.73
2023-03-15T01:08:45.890Z,0.80
2023-03-15T01:11:15.091Z,1.30
2023-03-15T01:13:42.080Z,1.10
2023-03-15T01:16:10.066Z,1.00
2023-03-15T01:18:37.955Z,1.07
2023-03-15T01:21:11.432Z,1.27
2023-03-15T01:23:38.648Z,1.30
2023-03-15T01:26:07.811Z,1.30
2023-03-15T01:28:34.440Z,1.87
2023-03-15T01:31:01.147Z,1.57
2023-03-15T01:33:28.330Z,1.50
2023-03-15T01:36:03.886Z,1.40
2023-03-15T01:38:30.795Z,1.70
2023-03-15T01:40:57.904Z,1.67
2023-03-15T01:43:26.205Z,1.43
2023-03-15T01:46:01.651Z,1.30
2023-03-15T01:48:51.119Z,1.40
2023-03-15T01:51:32.667Z,1.40
2023-03-15T01:54:09.903Z,1.60
2023-03-15T01:56:39.152Z,1.40
2023-03-15T01:59:09.656Z,1.33
2023-03-15T02:01:37.455Z,1.20
2023-03-15T02:04:08.246Z,1.47
2023-03-15T02:06:35.362Z,1.40
2023-03-15T02:09:09.475Z,1.40
2023-03-15T02:11:36.753Z,1.20
2023-03-15T02:14:05.182Z,1.20
2023-03-15T02:16:31.734Z,1.27
2023-03-15T02:18:58.626Z,0.87
2023-03-15T02:21:30.936Z,1.00
2023-03-15T02:24:26.044Z,1.03
2023-03-15T02:26:55.302Z,1.00
2023-03-15T02:29:22.780Z,1.10
2023-03-15T02:31:49.609Z,0.90
2023-03-15T02:34:16.309Z,0.90
2023-03-15T02:36:42.774Z,1.37
2023-03-15T02:39:17.188Z,1.30
2023-03-15T02:41:52.854Z,1.10
2023-03-15T02:44:23.534Z,1.10
2023-03-15T02:46:51.616Z,0.90
2023-03-15T02:49:18.974Z,1.07
2023-03-15T02:51:45.473Z,1.00
2023-03-15T02:54:11.941Z,1.00
2023-03-15T02:56:38.385Z,0.97
2023-03-15T02:59:04.961Z,1.17
2023-03-15T03:01:31.701Z,1.10
2023-03-15T03:03:58.289Z,0.97
2023-03-15T03:06:24.795Z,0.97
2023-03-15T03:08:51.388Z,1.00
2023-03-15T03:11:17.886Z,1.20
2023-03-15T03:13:44.385Z,1.07
2023-03-15T03:16:11.326Z,1.40
2023-03-15T03:18:38.186Z,1.33
2023-03-15T03:21:06.790Z,0.97
2023-03-15T03:23:34.964Z,1.33
2023-03-15T03:26:02.313Z,1.47
2023-03-15T03:28:31.985Z,1.43
2023-03-15T03:30:59.149Z,1.33
2023-03-15T03:33:25.717Z,1.33
2023-03-15T03:35:54.138Z,1.70
2023-03-15T03:38:20.683Z,1.90
2023-03-15T03:40:47.157Z,2.23
2023-03-15T03:43:13.780Z,2.20
2023-03-15T03:45:40.246Z,1.93
2023-03-15T03:48:06.771Z,2.43
2023-03-15T03:50:33.308Z,1.97
2023-03-15T03:52:59.763Z,2.07
2023-03-15T03:55:26.217Z,2.77
2023-03-15T03:57:55.353Z,2.30
2023-03-15T04:00:21.831Z,2.60
2023-03-15T04:02:48.447Z,2.97
2023-03-15T04:05:15.897Z,2.43
2023-03-15T04:07:42.411Z,2.40
2023-03-15T04:10:09.440Z,2.63
2023-03-15T04:12:35.948Z,2.80
2023-03-15T04:15:03.370Z,2.57
2023-03-15T04:17:29.816Z,2.70
2023-03-15T04:19:56.454Z,2.77
2023-03-15T04:22:22.898Z,3.00
2023-03-15T04:24:50.668Z,3.10
2023-03-15T04:27:17.167Z,3.00
2023-03-15T04:29:43.862Z,2.43
2023-03-15T04:32:11.465Z,2.77
2023-03-15T04:34:38.910Z,2.67
2023-03-15T04:37:06.264Z,2.93
2023-03-15T04:39:32.785Z,2.80
2023-03-15T04:41:59.303Z,2.70
2023-03-15T04:44:26.673Z,2.93
2023-03-15T04:46:56.275Z,2.93
2023-03-15T04:49:22.732Z,2.87
2023-03-15T04:51:49.266Z,2.70
2023-03-15T04:54:16.277Z,3.00
2023-03-15T04:56:42.871Z,2.67
2023-03-15T04:59:11.089Z,2.73
2023-03-15T05:01:37.774Z,2.97
2023-03-15T05:04:04.402Z,2.57
2023-03-15T05:06:30.915Z,2.50
2023-03-15T05:08:57.360Z,2.57
2023-03-15T05:11:24.170Z,2.40
2023-03-15T05:13:50.809Z,3.00
2023-03-15T05:16:17.554Z,3.20
2023-03-15T05:18:45.250Z,3.23
2023-03-15T05:21:13.056Z,3.00
2023-03-15T05:23:39.657Z,3.57
2023-03-15T05:26:06.235Z,3.73
2023-03-15T05:28:32.758Z,4.10
2023-03-15T05:31:00.642Z,4.07
2023-03-15T05:33:27.451Z,4.07
2023-03-15T05:35:56.385Z,4.40
2023-03-15T05:38:26.725Z,4.23
2023-03-15T05:40:54.556Z,4.90
2023-03-15T05:43:21.774Z,5.53
2023-03-15T05:45:48.866Z,4.37
2023-03-15T05:48:17.310Z,4.80
2023-03-15T05:50:43.854Z,5.47
2023-03-15T05:53:10.629Z,4.23
2023-03-15T05:55:37.403Z,4.67
2023-03-15T05:58:04.459Z,4.80
2023-03-15T06:00:31.211Z,4.50
2023-03-15T06:02:57.711Z,4.40
2023-03-15T06:05:24.631Z,4.23
2023-03-15T06:07:51.247Z,5.03
2023-03-15T06:10:17.961Z,5.07
2023-03-15T06:12:44.875Z,4.57
2023-03-15T06:15:11.784Z,4.10
2023-03-15T06:17:38.558Z,4.03
2023-03-15T06:20:05.652Z,4.07
2023-03-15T06:22:32.347Z,4.33
2023-03-15T06:24:58.979Z,4.10
2023-03-15T06:27:25.528Z,4.70
2023-03-15T06:29:52.314Z,4.83
2023-03-15T06:32:18.944Z,4.40
2023-03-15T06:34:45.454Z,5.33
2023-03-15T06:37:16.309Z,4.80
2023-03-15T06:39:44.860Z,4.90
2023-03-15T06:42:13.828Z,5.13
2023-03-15T06:44:41.337Z,5.10
2023-03-15T06:47:08.848Z,5.10
2023-03-15T06:49:35.558Z,5.67
2023-03-15T06:52:02.782Z,5.00
2023-03-15T06:54:29.341Z,5.47
2023-03-15T06:56:55.993Z,5.17
2023-03-15T06:59:22.704Z,4.87
2023-03-15T07:01:49.291Z,5.63
2023-03-15T07:04:18.621Z,4.77
2023-03-15T07:06:45.216Z,4.50
2023-03-15T07:09:11.751Z,5.83
2023-03-15T07:11:38.291Z,4.87
2023-03-15T07:14:04.769Z,5.13
2023-03-15T07:16:31.391Z,5.00
2023-03-15T07:19:00.015Z,6.10
2023-03-15T07:21:27.395Z,6.30
2023-03-15T07:23:54.582Z,7.30
2023-03-15T07:26:21.177Z,7.40
2023-03-15T07:28:47.663Z,7.27
2023-03-15T07:31:16.527Z,7.77
2023-03-15T07:33:43.160Z,7.70
2023-03-15T07:36:09.860Z,8.10
2023-03-15T07:38:36.726Z,7.77
2023-03-15T07:41:05.877Z,7.47
2023-03-15T07:43:32.869Z,7.53
2023-03-15T07:45:59.764Z,7.03
2023-03-15T07:48:26.412Z,7.20
2023-03-15T07:50:52.931Z,6.40
2023-03-15T07:53:19.543Z,7.23
2023-03-15T07:55:48.051Z,6.73
2023-03-15T07:58:16.986Z,5.80
2023-03-15T08:00:44.528Z,6.47
2023-03-15T08:03:11.494Z,6.57
2023-03-15T08:05:38.394Z,6.07
2023-03-15T08:08:05.445Z,6.50
2023-03-15T08:10:32.079Z,6.47
2023-03-15T08:12:58.660Z,5.77
2023-03-15T08:15:25.154Z,6.07
2023-03-15T08:17:51.835Z,6.30
2023-03-15T08:20:21.618Z,5.83
2023-03-15T08:22:50.210Z,5.90
2023-03-15T08:25:20.264Z,5.33
2023-03-15T08:27:47.083Z,5.37
2023-03-15T08:30:16.219Z,5.77
2023-03-15T08:32:45.063Z,5.60
2023-03-15T08:35:15.540Z,4.90
2023-03-15T08:37:47.116Z,5.97
2023-03-15T08:40:25.442Z,6.00
2023-03-15T08:42:53.186Z,5.17
2023-03-15T08:45:20.621Z,4.97
2023-03-15T08:47:47.154Z,3.93
2023-03-15T08:50:17.599Z,4.70
2023-03-15T08:52:44.441Z,4.53
2023-03-15T08:55:16.688Z,4.20
2023-03-15T08:57:43.222Z,4.57
2023-03-15T09:00:17.350Z,4.80
2023-03-15T09:02:44.062Z,4.53
2023-03-15T09:05:12.207Z,4.70
2023-03-15T09:07:43.215Z,4.33
2023-03-15T09:10:13.216Z,3.93
2023-03-15T09:12:41.030Z,3.40
2023-03-15T09:15:08.134Z,3.67
2023-03-15T09:17:34.678Z,3.77
2023-03-15T09:20:01.213Z,4.00
2023-03-15T09:22:39.035Z,4.10
2023-03-15T09:25:07.018Z,3.70
2023-03-15T09:27:34.001Z,3.67
2023-03-15T09:30:00.631Z,3.30
2023-03-15T09:32:27.257Z,2.97
2023-03-15T09:34:53.797Z,3.13
2023-03-15T09:37:21.822Z,3.10
2023-03-15T09:39:48.364Z,3.30
2023-03-15T09:42:25.466Z,2.57
2023-03-15T09:45:14.948Z,3.30
2023-03-15T09:48:01.253Z,3.60
2023-03-15T09:50:46.998Z,3.63
2023-03-15T09:53:36.985Z,2.93
2023-03-15T09:56:03.817Z,3.23
2023-03-15T09:58:35.487Z,4.00
2023-03-15T10:01:07.021Z,3.43
2023-03-15T10:03:50.547Z,3.47
2023-03-15T10:06:24.372Z,3.60
2023-03-15T10:08:55.532Z,3.67
2023-03-15T10:11:46.630Z,3.93
2023-03-15T10:14:39.355Z,3.80
2023-03-15T10:17:24.366Z,4.30
2023-03-15T10:20:01.448Z,3.83
2023-03-15T10:22:34.438Z,4.13
2023-03-15T10:25:17.871Z,3.43
2023-03-15T10:27:54.416Z,3.70
2023-03-15T10:30:29.655Z,3.73
2023-03-15T10:33:00.808Z,3.40
2023-03-15T10:35:27.556Z,3.00
2023-03-15T10:37:54.776Z,3.67
2023-03-15T10:40:45.059Z,4.60
2023-03-15T10:43:30.247Z,3.40
2023-03-15T10:46:13.627Z,3.93
2023-03-15T10:49:20.719Z,3.20
2023-03-15T10:51:48.817Z,2.90
2023-03-15T10:54:18.150Z,3.00
2023-03-15T10:56:51.083Z,3.27
2023-03-15T10:59:24.207Z,3.60
2023-03-15T11:02:08.200Z,3.27
2023-03-15T11:04:34.983Z,3.47
2023-03-15T11:07:03.429Z,2.77
2023-03-15T11:09:45.675Z,2.70
2023-03-15T11:12:24.788Z,2.77
2023-03-15T11:14:56.688Z,2.80
2023-03-15T11:17:26.489Z,2.70
2023-03-15T11:20:13.352Z,2.93
2023-03-15T11:22:40.500Z,2.57
2023-03-15T11:25:15.991Z,2.67
2023-03-15T11:27:43.558Z,2.57
2023-03-15T11:30:15.781Z,2.60
2023-03-15T11:32:43.876Z,2.80
2023-03-15T11:35:16.926Z,2.33
2023-03-15T11:37:55.184Z,3.10
2023-03-15T11:40:33.863Z,3.03
2023-03-15T11:43:08.357Z,3.23
2023-03-15T11:45:46.983Z,3.63
2023-03-15T11:48:18.447Z,3.60
2023-03-15T11:50:45.362Z,4.47
2023-03-15T11:53:16.801Z,4.00
2023-03-15T11:55:49.331Z,3.87
2023-03-15T11:58:30.192Z,4.20
2023-03-15T12:01:10.793Z,4.07
2023-03-15T12:03:42.486Z,3.93
2023-03-15T12:06:13.550Z,3.73
2023-03-15T12:08:53.765Z,3.73
2023-03-15T12:11:20.606Z,4.13
2023-03-15T12:13:59.375Z,4.20
2023-03-15T12:16:28.501Z,4.80
2023-03-15T12:18:59.207Z,4.00
2023-03-15T12:21:34.488Z,4.70
2023-03-15T12:24:15.218Z,4.23
2023-03-15T12:26:44.365Z,4.57
2023-03-15T12:29:33.644Z,3.80
2023-03-15T12:32:09.044Z,4.70
2023-03-15T12:34:37.727Z,4.07
2023-03-15T12:37:16.495Z,4.00
2023-03-15T12:39:46.281Z,5.07
2023-03-15T12:42:32.956Z,4.57
2023-03-15T12:45:17.853Z,4.30
2023-03-15T12:47:50.251Z,4.10
2023-03-15T12:50:39.541Z,5.30
2023-03-15T12:53:16.832Z,4.53
2023-03-15T12:55:43.703Z,3.87
2023-03-15T12:58:12.144Z,3.77
2023-03-15T13:00:41.191Z,3.50
2023-03-15T13:03:12.199Z,3.37
2023-03-15T13:06:03.765Z,3.60
2023-03-15T13:08:58.369Z,3.37
2023-03-15T13:11:37.221Z,3.30
2023-03-15T13:14:12.710Z,3.90
2023-03-15T13:16:47.258Z,2.97
2023-03-15T13:19:14.849Z,4.30
2023-03-15T13:22:00.261Z,4.37
2023-03-15T13:25:00.262Z,5.40
2023-03-15T13:27:35.768Z,4.00
2023-03-15T13:30:25.146Z,4.13
2023-03-15T13:33:27.476Z,3.57
2023-03-15T13:36:06.795Z,2.80
2023-03-15T13:38:34.703Z,3.00
2023-03-15T13:41:03.723Z,2.70
2023-03-15T13:43:39.724Z,3.20
2023-03-15T13:46:06.498Z,3.80
2023-03-15T13:48:35.678Z,4.50
2023-03-15T13:51:11.382Z,4.27
2023-03-15T13:53:49.548Z,4.43
2023-03-15T13:56:20.824Z,4.20
2023-03-15T13:58:48.575Z,4.17
2023-03-15T14:01:16.664Z,4.43
2023-03-15T14:03:44.024Z,4.93
2023-03-15T14:06:21.907Z,4.67
2023-03-15T14:08:49.686Z,4.37
2023-03-15T14:11:30.856Z,5.23
2023-03-15T14:14:00.070Z,5.30
2023-03-15T14:17:02.994Z,5.80
2023-03-15T14:19:33.081Z,4.57
2023-03-15T14:22:01.324Z,5.10
2023-03-15T14:24:35.741Z,6.40
2023-03-15T14:27:06.314Z,4.73
2023-03-15T14:29:34.986Z,4.80
2023-03-15T14:32:05.494Z,4.60
2023-03-15T14:34:37.265Z,5.43
2023-03-15T14:37:09.887Z,4.47
2023-03-15T14:39:41.634Z,3.70
2023-03-15T14:42:12.073Z,4.97
2023-03-15T14:44:38.675Z,4.50
2023-03-15T14:47:16.589Z,4.00
2023-03-15T14:49:43.209Z,4.33
2023-03-15T14:52:12.676Z,3.70
2023-03-15T14:54:42.731Z,4.20
2023-03-15T14:57:09.380Z,3.67
2023-03-15T14:59:36.121Z,3.30
2023-03-15T15:02:03.283Z,3.13
2023-03-15T15:04:33.601Z,3.10
2023-03-15T15:07:03.133Z,3.10
2023-03-15T15:09:31.012Z,3.63
2023-03-15T15:11:57.619Z,3.83
2023-03-15T15:14:24.228Z,4.23
2023-03-15T15:16:51.855Z,3.80
2023-03-15T15:19:18.455Z,3.90
2023-03-15T15:21:44.995Z,4.13
2023-03-15T15:24:15.399Z,4.90
2023-03-15T15:26:42.194Z,4.03
2023-03-15T15:29:14.093Z,3.90
2023-03-15T15:31:41.615Z,4.03
2023-03-15T15:34:09.358Z,4.30
2023-03-15T15:36:39.124Z,4.00
2023-03-15T15:39:27.562Z,4.27
2023-03-15T15:41:54.311Z,4.73
2023-03-15T15:44:22.747Z,5.00
2023-03-15T15:46:49.868Z,4.53
2023-03-15T15:49:16.828Z,4.60
2023-03-15T15:51:49.474Z,4.07
2023-03-15T15:54:20.490Z,4.30
2023-03-15T15:56:52.579Z,3.93
2023-03-15T15:59:19.529Z,3.57
2023-03-15T16:01:59.596Z,3.30
2023-03-15T16:04:27.035Z,3.27
2023-03-15T16:07:01.744Z,2.93
2023-03-15T16:09:30.470Z,3.27
2023-03-15T16:11:57.211Z,3.23
2023-03-15T16:14:23.787Z,2.97
2023-03-15T16:16:50.842Z,2.37
2023-03-15T16:19:17.454Z,2.97
2023-03-15T16:21:47.614Z,2.37
2023-03-15T16:24:26.414Z,2.83
2023-03-15T16:27:00.987Z,2.50
2023-03-15T16:29:43.308Z,2.93
2023-03-15T16:32:19.354Z,2.50
2023-03-15T16:34:52.344Z,2.23
2023-03-15T16:37:26.551Z,2.80
2023-03-15T16:39:55.774Z,2.93
2023-03-15T16:42:24.425Z,2.50
2023-03-15T16:44:52.060Z,2.73
2023-03-15T16:47:19.184Z,3.10
2023-03-15T16:49:45.792Z,3.40
2023-03-15T16:52:13.902Z,3.60
2023-03-15T16:54:41.802Z,4.53
2023-03-15T16:57:21.854Z,4.23
2023-03-15T16:59:48.855Z,3.80
2023-03-15T17:02:26.173Z,4.63
2023-03-15T17:04:53.073Z,4.03
2023-03-15T17:07:31.615Z,3.70
2023-03-15T17:09:58.306Z,4.93
2023-03-15T17:12:28.514Z,4.17
2023-03-15T17:14:56.973Z,5.27
2023-03-15T17:17:27.050Z,4.83
2023-03-15T17:19:54.110Z,5.23
2023-03-15T17:22:21.343Z,6.30
2023-03-15T17:24:48.501Z,4.73
2023-03-15T17:27:25.725Z,5.10
2023-03-15T17:29:52.296Z,5.47
2023-03-15T17:32:18.855Z,5.70
2023-03-15T17:34:47.446Z,4.83
2023-03-15T17:37:18.429Z,5.50
2023-03-15T17:39:45.253Z,5.83
2023-03-15T17:42:16.132Z,5.20
2023-03-15T17:44:42.657Z,7.13
2023-03-15T17:47:12.443Z,9.33
2023-03-15T17:49:39.520Z,10.90
2023-03-15T17:52:13.224Z,11.40
2023-03-15T17:54:39.912Z,15.83
2023-03-15T17:57:06.914Z,14.67
2023-03-15T17:59:33.407Z,12.43
2023-03-15T18:01:59.966Z,9.07
2023-03-15T18:04:26.691Z,9.00
2023-03-15T18:06:53.975Z,8.77
2023-03-15T18:09:22.235Z,9.80
2023-03-15T18:11:48.862Z,8.80
2023-03-15T18:14:16.627Z,8.33
2023-03-15T18:16:43.830Z,9.73
2023-03-15T18:19:10.631Z,9.07
2023-03-15T18:21:37.496Z,8.77
2023-03-15T18:24:04.108Z,7.77
2023-03-15T18:26:30.721Z,7.90
2023-03-15T18:28:57.212Z,7.87
2023-03-15T18:31:25.282Z,7.47
2023-03-15T18:33:52.446Z,7.57
2023-03-15T18:36:19.441Z,7.40
2023-03-15T18:38:46.222Z,7.50
2023-03-15T18:41:20.827Z,7.30
2023-03-15T18:43:49.956Z,6.93
2023-03-15T18:46:18.468Z,14.93
2023-03-15T18:48:46.071Z,25.10
2023-03-15T18:51:13.919Z,22.63
2023-03-15T18:53:42.491Z,25.87
2023-03-15T18:56:16.279Z,26.73
2023-03-15T18:58:42.773Z,25.80
2023-03-15T19:01:09.339Z,29.50
2023-03-15T19:03:35.858Z,29.20
2023-03-15T19:06:06.902Z,31.20
2023-03-15T19:08:34.173Z,33.93
2023-03-15T19:11:02.075Z,34.53
2023-03-15T19:13:28.695Z,33.93
2023-03-15T19:15:55.869Z,34.63
2023-03-15T19:18:23.116Z,33.50
2023-03-15T19:20:51.577Z,34.47
2023-03-15T19:23:18.525Z,34.63
2023-03-15T19:25:45.784Z,35.87
2023-03-15T19:28:12.551Z,38.33
2023-03-15T19:30:39.179Z,33.77
2023-03-15T19:33:05.795Z,31.37
2023-03-15T19:35:33.670Z,27.00
2023-03-15T19:38:00.531Z,22.17
2023-03-15T19:40:27.116Z,21.10
2023-03-15T19:42:53.725Z,19.87
2023-03-15T19:45:20.538Z,18.90
2023-03-15T19:47:47.170Z,20.40
2023-03-15T19:50:14.879Z,19.60
2023-03-15T19:52:45.790Z,19.20
2023-03-15T19:55:13.906Z,20.83
2023-03-15T19:57:40.533Z,21.43
2023-03-15T20:00:12.530Z,20.77
2023-03-15T20:02:42.956Z,21.13
2023-03-15T20:05:16.001Z,19.70
2023-03-15T20:07:43.067Z,17.33
2023-03-15T20:10:11.097Z,17.33
2023-03-15T20:12:38.963Z,17.47
2023-03-15T20:15:06.836Z,16.87
2023-03-15T20:17:33.315Z,21.53
2023-03-15T20:19:59.772Z,19.40
2023-03-15T20:22:26.250Z,19.20
2023-03-15T20:24:52.707Z,15.93
2023-03-15T20:27:19.560Z,17.23
2023-03-15T20:29:46.065Z,17.87
2023-03-15T20:32:12.554Z,18.10
2023-03-15T20:34:41.426Z,17.77
2023-03-15T20:37:08.026Z,17.07
2023-03-15T20:39:34.654Z,14.87
2023-03-15T20:42:01.116Z,14.90
2023-03-15T20:44:27.652Z,13.33
2023-03-15T20:46:58.796Z,13.80
2023-03-15T20:49:27.005Z,13.90
2023-03-15T20:51:55.366Z,14.47
2023-03-15T20:54:21.812Z,18.70
2023-03-15T20:56:48.289Z,23.80
2023-03-15T20:59:15.297Z,22.00
2023-03-15T21:01:41.945Z,21.20
2023-03-15T21:04:08.429Z,22.93
2023-03-15T21:06:35.084Z,21.97
2023-03-15T21:09:01.600Z,22.63
2023-03-15T21:11:28.105Z,20.40
2023-03-15T21:13:54.664Z,20.73
2023-03-15T21:16:24.981Z,18.23
2023-03-15T21:18:53.127Z,17.17
2023-03-15T21:21:19.879Z,15.93
2023-03-15T21:23:46.470Z,15.87
2023-03-15T21:26:13.597Z,13.60
2023-03-15T21:28:41.111Z,14.97
2023-03-15T21:31:08.069Z,15.30
2023-03-15T21:33:35.319Z,13.87
2023-03-15T21:36:02.452Z,14.13
2023-03-15T21:38:31.476Z,13.33
2023-03-15T21:40:59.420Z,14.00
2023-03-15T21:43:31.835Z,13.47
2023-03-15T21:46:02.622Z,13.23
2023-03-15T21:48:29.444Z,12.27
2023-03-15T21:50:56.358Z,12.43
2023-03-15T21:53:23.181Z,12.90
2023-03-15T21:55:49.888Z,11.03
2023-03-15T21:58:16.573Z,11.60
2023-03-15T22:00:43.273Z,11.87
2023-03-15T22:03:09.766Z,12.30
2023-03-15T22:05:36.606Z,10.20
2023-03-15T22:08:03.361Z,10.37
2023-03-15T22:10:29.874Z,10.33
2023-03-15T22:12:56.417Z,10.27
2023-03-15T22:15:23.098Z,10.77
2023-03-15T22:17:50.378Z,11.90
2023-03-15T22:20:17.328Z,11.50
2023-03-15T22:22:45.352Z,10.73
2023-03-15T22:25:12.772Z,12.13
2023-03-15T22:27:39.759Z,11.67
2023-03-15T22:30:09.542Z,11.33
2023-03-15T22:32:36.125Z,11.30
2023-03-15T22:35:02.598Z,11.43
2023-03-15T22:37:29.089Z,11.23
2023-03-15T22:39:55.531Z,11.20
2023-03-15T22:42:22.071Z,12.30
2023-03-15T22:44:48.580Z,11.33
2023-03-15T22:47:15.553Z,11.07
2023-03-15T22:49:42.080Z,10.63
2023-03-15T22:52:08.675Z,11.50
2023-03-15T22:54:35.300Z,11.27
2023-03-15T22:57:01.927Z,10.80
2023-03-15T22:59:29.119Z,11.23
2023-03-15T23:01:56.689Z,11.50
2023-03-15T23:04:23.977Z,11.33
2023-03-15T23:06:51.640Z,12.20
2023-03-15T23:09:18.147Z,10.93
2023-03-15T23:11:44.859Z,11.47
2023-03-15T23:14:11.485Z,11.67
2023-03-15T23:16:37.979Z,11.10
